sensor_id;sensor_type;location;lat;lon;timestamp;pressure;altitude;pressure_sealevel;temperature;humidity
9893;BME280;4985;49.092;8.542;2023-04-26T00:00:34;99427.19;;;17.27;52.51
9893;BME280;4985;49.092;8.542;2023-04-26T00:03:00;99428.22;;;17.26;52.52
9893;BME280;4985;49.092;8.542;2023-04-26T00:05:28;99433.53;;;17.26;52.52
9893;BME280;4985;49.092;8.542;2023-04-26T00:07:56;99435.38;;;17.25;52.52
9893;BME280;4985;49.092;8.542;2023-04-26T00:10:23;99432.72;;;17.25;52.52
9893;BME280;4985;49.092;8.542;2023-04-26T00:12:49;99423.09;;;17.24;52.53
9893;BME280;4985;49.092;8.542;2023-04-26T00:15:16;99434.75;;;17.23;52.53
9893;BME280;4985;49.092;8.542;2023-04-26T00:17:43;99437.44;;;17.23;52.55
9893;BME280;4985;49.092;8.542;2023-04-26T00:20:10;99441.09;;;17.22;52.54
9893;BME280;4985;49.092;8.542;2023-04-26T00:22:37;99438.44;;;17.22;52.55
9893;BME280;4985;49.092;8.542;2023-04-26T00:25:07;99442.09;;;17.21;52.55
9893;BME280;4985;49.092;8.542;2023-04-26T00:27:34;99448.28;;;17.22;52.56
9893;BME280;4985;49.092;8.542;2023-04-26T00:30:00;99447.41;;;17.21;52.56
9893;BME280;4985;49.092;8.542;2023-04-26T00:32:27;99443.94;;;17.21;52.56
9893;BME280;4985;49.092;8.542;2023-04-26T00:34:54;99444.97;;;17.20;52.56
9893;BME280;4985;49.092;8.542;2023-04-26T00:37:20;99444.97;;;17.20;52.55
9893;BME280;4985;49.092;8.542;2023-04-26T00:39:47;99441.50;;;17.19;52.56
9893;BME280;4985;49.092;8.542;2023-04-26T00:42:15;99435.34;;;17.18;52.56
9893;BME280;4985;49.092;8.542;2023-04-26T00:44:43;99432.91;;;17.17;52.56
9893;BME280;4985;49.092;8.542;2023-04-26T00:47:10;99431.06;;;17.17;52.58
9893;BME280;4985;49.092;8.542;2023-04-26T00:49:36;99432.91;;;17.17;52.58
9893;BME280;4985;49.092;8.542;2023-04-26T00:52:03;99439.03;;;17.17;52.57
9893;BME280;4985;49.092;8.542;2023-04-26T00:54:30;99434.75;;;17.16;52.57
9893;BME280;4985;49.092;8.542;2023-04-26T00:56:56;99445.37;;;17.16;52.58
9893;BME280;4985;49.092;8.542;2023-04-26T00:59:25;99432.28;;;17.15;52.58
9893;BME280;4985;49.092;8.542;2023-04-26T01:01:52;99438.84;;;17.12;52.57
9893;BME280;4985;49.092;8.542;2023-04-26T01:04:18;99441.09;;;17.15;52.56
9893;BME280;4985;49.092;8.542;2023-04-26T01:06:46;99450.69;;;17.16;52.56
9893;BME280;4985;49.092;8.542;2023-04-26T01:09:12;99440.25;;;17.15;52.55
9893;BME280;4985;49.092;8.542;2023-04-26T01:11:39;99435.97;;;17.14;52.55
9893;BME280;4985;49.092;8.542;2023-04-26T01:14:07;99437.59;;;17.15;52.55
9893;BME280;4985;49.092;8.542;2023-04-26T01:16:36;99433.31;;;17.14;52.55
9893;BME280;4985;49.092;8.542;2023-04-26T01:19:07;99429.00;;;17.13;52.55
9893;BME280;4985;49.092;8.542;2023-04-26T01:21:35;99435.97;;;17.14;52.54
9893;BME280;4985;49.092;8.542;2023-04-26T01:24:03;99437.00;;;17.13;52.54
9893;BME280;4985;49.092;8.542;2023-04-26T01:26:31;99427.38;;;17.12;52.54
9893;BME280;4985;49.092;8.542;2023-04-26T01:28:57;99432.50;;;17.13;52.54
9893;BME280;4985;49.092;8.542;2023-04-26T01:31:24;99435.34;;;17.12;52.54
9893;BME280;4985;49.092;8.542;2023-04-26T01:33:50;99433.72;;;17.11;52.55
9893;BME280;4985;49.092;8.542;2023-04-26T01:36:17;99431.88;;;17.11;52.55
9893;BME280;4985;49.092;8.542;2023-04-26T01:38:43;99423.09;;;17.11;52.54
9893;BME280;4985;49.092;8.542;2023-04-26T01:41:11;99420.59;;;17.09;52.55
9893;BME280;4985;49.092;8.542;2023-04-26T01:43:38;99423.25;;;17.09;52.53
9893;BME280;4985;49.092;8.542;2023-04-26T01:46:04;99422.44;;;17.09;52.54
9893;BME280;4985;49.092;8.542;2023-04-26T01:48:31;99422.44;;;17.09;52.55
9893;BME280;4985;49.092;8.542;2023-04-26T01:50:57;99417.13;;;17.09;52.56
9893;BME280;4985;49.092;8.542;2023-04-26T01:53:24;99422.66;;;17.07;52.56
9893;BME280;4985;49.092;8.542;2023-04-26T01:55:51;99428.78;;;17.08;52.56
9893;BME280;4985;49.092;8.542;2023-04-26T01:58:18;99421.81;;;17.07;52.55
9893;BME280;4985;49.092;8.542;2023-04-26T02:00:45;99419.16;;;17.07;52.55
9893;BME280;4985;49.092;8.542;2023-04-26T02:03:12;99423.66;;;17.06;52.55
9893;BME280;4985;49.092;8.542;2023-04-26T02:05:38;99417.53;;;17.06;52.55
9893;BME280;4985;49.092;8.542;2023-04-26T02:08:05;99420.19;;;17.06;52.55
9893;BME280;4985;49.092;8.542;2023-04-26T02:10:31;99416.72;;;17.05;52.56
9893;BME280;4985;49.092;8.542;2023-04-26T02:12:58;99427.34;;;17.05;52.55
9893;BME280;4985;49.092;8.542;2023-04-26T02:15:26;99423.06;;;17.04;52.56
9893;BME280;4985;49.092;8.542;2023-04-26T02:17:52;99426.75;;;17.03;52.55
9893;BME280;4985;49.092;8.542;2023-04-26T02:20:20;99426.94;;;17.02;52.56
9893;BME280;4985;49.092;8.542;2023-04-26T02:22:47;99423.25;;;17.03;52.55
9893;BME280;4985;49.092;8.542;2023-04-26T02:25:13;99427.75;;;17.02;52.56
9893;BME280;4985;49.092;8.542;2023-04-26T02:27:40;99433.91;;;17.03;52.57
9893;BME280;4985;49.092;8.542;2023-04-26T02:30:07;99424.28;;;17.02;52.55
9893;BME280;4985;49.092;8.542;2023-04-26T02:32:35;99426.94;;;17.02;52.55
9893;BME280;4985;49.092;8.542;2023-04-26T02:35:02;99432.25;;;17.02;52.55
9893;BME280;4985;49.092;8.542;2023-04-26T02:37:31;99432.25;;;17.02;52.55
9893;BME280;4985;49.092;8.542;2023-04-26T02:39:58;99434.91;;;17.02;52.56
9893;BME280;4985;49.092;8.542;2023-04-26T02:42:24;99433.28;;;17.01;52.55
9893;BME280;4985;49.092;8.542;2023-04-26T02:44:51;99434.31;;;17.00;52.54
9893;BME280;4985;49.092;8.542;2023-04-26T02:47:17;99432.62;;;16.99;52.54
9893;BME280;4985;49.092;8.542;2023-04-26T02:49:45;99431.66;;;17.00;52.54
9893;BME280;4985;49.092;8.542;2023-04-26T02:52:12;99433.50;;;16.99;52.55
9893;BME280;4985;49.092;8.542;2023-04-26T02:54:38;99433.50;;;16.99;52.55
9893;BME280;4985;49.092;8.542;2023-04-26T02:57:05;99435.31;;;16.99;52.54
9893;BME280;4985;49.092;8.542;2023-04-26T02:59:32;99438.81;;;16.99;52.54
9893;BME280;4985;49.092;8.542;2023-04-26T03:01:59;99436.31;;;16.98;52.55
9893;BME280;4985;49.092;8.542;2023-04-26T03:04:25;99436.31;;;16.98;52.53
9893;BME280;4985;49.092;8.542;2023-04-26T03:06:54;99440.81;;;16.97;52.53
9893;BME280;4985;49.092;8.542;2023-04-26T03:09:20;99431.00;;;16.98;52.54
9893;BME280;4985;49.092;8.542;2023-04-26T03:11:47;99433.88;;;16.96;52.55
9893;BME280;4985;49.092;8.542;2023-04-26T03:14:14;99439.19;;;16.96;52.53
9893;BME280;4985;49.092;8.542;2023-04-26T03:16:41;99441.03;;;16.96;52.53
9893;BME280;4985;49.092;8.542;2023-04-26T03:19:08;99435.72;;;16.96;52.52
9893;BME280;4985;49.092;8.542;2023-04-26T03:21:34;99442.06;;;16.95;52.51
9893;BME280;4985;49.092;8.542;2023-04-26T03:24:02;99443.91;;;16.94;52.51
9893;BME280;4985;49.092;8.542;2023-04-26T03:26:29;99444.09;;;16.93;52.52
9893;BME280;4985;49.092;8.542;2023-04-26T03:28:56;99439.59;;;16.93;52.52
9893;BME280;4985;49.092;8.542;2023-04-26T03:31:22;99444.91;;;16.93;52.52
9893;BME280;4985;49.092;8.542;2023-04-26T03:33:49;99438.78;;;16.93;52.52
9893;BME280;4985;49.092;8.542;2023-04-26T03:36:16;99432.62;;;16.92;52.51
9893;BME280;4985;49.092;8.542;2023-04-26T03:38:42;99432.62;;;16.92;52.51
9893;BME280;4985;49.092;8.542;2023-04-26T03:41:10;99437.16;;;16.92;52.51
9893;BME280;4985;49.092;8.542;2023-04-26T03:43:37;99442.47;;;16.92;52.50
9893;BME280;4985;49.092;8.542;2023-04-26T03:46:04;99442.47;;;16.92;52.50
9893;BME280;4985;49.092;8.542;2023-04-26T03:48:30;99447.38;;;16.88;52.50
9893;BME280;4985;49.092;8.542;2023-04-26T03:50:57;99443.47;;;16.91;52.51
9893;BME280;4985;49.092;8.542;2023-04-26T03:53:23;99449.81;;;16.90;52.52
9893;BME280;4985;49.092;8.542;2023-04-26T03:55:50;99446.34;;;16.89;52.52
9893;BME280;4985;49.092;8.542;2023-04-26T03:58:18;99438.38;;;16.89;52.51
9893;BME280;4985;49.092;8.542;2023-04-26T04:00:45;99443.91;;;16.87;52.52
9893;BME280;4985;49.092;8.542;2023-04-26T04:03:11;99440.38;;;16.87;52.52
9893;BME280;4985;49.092;8.542;2023-04-26T04:05:38;99443.91;;;16.87;52.53
9893;BME280;4985;49.092;8.542;2023-04-26T04:08:04;99438.56;;;16.87;52.52
9893;BME280;4985;49.092;8.542;2023-04-26T04:10:31;99442.22;;;16.86;52.53
9893;BME280;4985;49.092;8.542;2023-04-26T04:12:57;99431.59;;;16.86;52.51
9893;BME280;4985;49.092;8.542;2023-04-26T04:15:26;99434.25;;;16.86;52.51
9893;BME280;4985;49.092;8.542;2023-04-26T04:17:52;99431.59;;;16.86;52.50
9893;BME280;4985;49.092;8.542;2023-04-26T04:20:20;99431.59;;;16.86;52.50
9893;BME280;4985;49.092;8.542;2023-04-26T04:22:47;99437.09;;;16.85;52.49
9893;BME280;4985;49.092;8.542;2023-04-26T04:25:13;99437.09;;;16.85;52.50
9893;BME280;4985;49.092;8.542;2023-04-26T04:27:41;99433.62;;;16.84;52.50
9893;BME280;4985;49.092;8.542;2023-04-26T04:30:08;99437.53;;;16.82;52.50
9893;BME280;4985;49.092;8.542;2023-04-26T04:32:37;99441.59;;;16.84;52.49
9893;BME280;4985;49.092;8.542;2023-04-26T04:35:06;99447.94;;;16.83;52.50
9893;BME280;4985;49.092;8.542;2023-04-26T04:37:33;99449.78;;;16.83;52.50
9893;BME280;4985;49.092;8.542;2023-04-26T04:40:00;99451.63;;;16.82;52.49
9893;BME280;4985;49.092;8.542;2023-04-26T04:42:26;99454.28;;;16.82;52.50
9893;BME280;4985;49.092;8.542;2023-04-26T04:44:53;99450.81;;;16.82;52.50
9893;BME280;4985;49.092;8.542;2023-04-26T04:47:20;99447.34;;;16.81;52.50
9893;BME280;4985;49.092;8.542;2023-04-26T04:49:48;99452.66;;;16.81;52.50
9893;BME280;4985;49.092;8.542;2023-04-26T04:52:15;99457.97;;;16.81;52.49
9893;BME280;4985;49.092;8.542;2023-04-26T04:54:41;99459.81;;;16.81;52.49
9893;BME280;4985;49.092;8.542;2023-04-26T04:57:08;99458.16;;;16.80;52.49
9893;BME280;4985;49.092;8.542;2023-04-26T04:59:35;99472.28;;;16.80;52.51
9893;BME280;4985;49.092;8.542;2023-04-26T05:02:01;99461.66;;;16.80;52.52
9893;BME280;4985;49.092;8.542;2023-04-26T05:04:28;99462.66;;;16.79;52.50
9893;BME280;4985;49.092;8.542;2023-04-26T05:06:57;99460.00;;;16.79;52.50
9893;BME280;4985;49.092;8.542;2023-04-26T05:09:23;99469.81;;;16.79;52.53
9893;BME280;4985;49.092;8.542;2023-04-26T05:11:50;99471.66;;;16.78;52.52
9893;BME280;4985;49.092;8.542;2023-04-26T05:14:17;99473.50;;;16.78;52.52
9893;BME280;4985;49.092;8.542;2023-04-26T05:16:44;99470.03;;;16.77;52.51
9893;BME280;4985;49.092;8.542;2023-04-26T05:19:10;99478.00;;;16.77;52.52
9893;BME280;4985;49.092;8.542;2023-04-26T05:21:37;99487.00;;;16.76;52.52
9893;BME280;4985;49.092;8.542;2023-04-26T05:24:05;99484.34;;;16.76;52.52
9893;BME280;4985;49.092;8.542;2023-04-26T05:26:34;99486.16;;;16.76;52.54
9893;BME280;4985;49.092;8.542;2023-04-26T05:29:00;99495.97;;;16.75;52.55
9893;BME280;4985;49.092;8.542;2023-04-26T05:31:27;99487.16;;;16.75;52.54
9893;BME280;4985;49.092;8.542;2023-04-26T05:33:53;99491.66;;;16.74;52.54
9893;BME280;4985;49.092;8.542;2023-04-26T05:36:20;99496.16;;;16.74;52.54
9893;BME280;4985;49.092;8.542;2023-04-26T05:38:47;99492.50;;;16.75;52.55
9893;BME280;4985;49.092;8.542;2023-04-26T05:41:15;99498.81;;;16.74;52.55
9893;BME280;4985;49.092;8.542;2023-04-26T05:43:42;99495.34;;;16.73;52.55
9893;BME280;4985;49.092;8.542;2023-04-26T05:46:08;99500.66;;;16.73;52.55
9893;BME280;4985;49.092;8.542;2023-04-26T05:48:35;99498.00;;;16.73;52.56
9893;BME280;4985;49.092;8.542;2023-04-26T05:51:01;99504.97;;;16.74;52.55
9893;BME280;4985;49.092;8.542;2023-04-26T05:53:28;99492.69;;;16.73;52.53
9893;BME280;4985;49.092;8.542;2023-04-26T05:55:55;99505.97;;;16.73;52.52
9893;BME280;4985;49.092;8.542;2023-04-26T05:58:23;99503.31;;;16.73;52.51
9893;BME280;4985;49.092;8.542;2023-04-26T06:00:50;99501.69;;;16.72;52.53
9893;BME280;4985;49.092;8.542;2023-04-26T06:03:16;99508.63;;;16.73;52.51
9893;BME280;4985;49.092;8.542;2023-04-26T06:05:43;99502.50;;;16.73;52.52
9893;BME280;4985;49.092;8.542;2023-04-26T06:08:10;99509.66;;;16.72;52.51
9893;BME280;4985;49.092;8.542;2023-04-26T06:10:36;99513.34;;;16.71;52.53
9893;BME280;4985;49.092;8.542;2023-04-26T06:13:03;99520.28;;;16.72;52.54
9893;BME280;4985;49.092;8.542;2023-04-26T06:15:31;99519.28;;;16.73;52.52
9893;BME280;4985;49.092;8.542;2023-04-26T06:17:58;99524.78;;;16.72;52.51
9893;BME280;4985;49.092;8.542;2023-04-26T06:20:25;99519.47;;;16.72;52.52
9893;BME280;4985;49.092;8.542;2023-04-26T06:22:52;99527.44;;;16.72;52.50
9893;BME280;4985;49.092;8.542;2023-04-26T06:25:18;99522.94;;;16.72;52.51
9893;BME280;4985;49.092;8.542;2023-04-26T06:27:45;99531.75;;;16.73;52.52
9893;BME280;4985;49.092;8.542;2023-04-26T06:30:12;99523.97;;;16.71;52.51
9893;BME280;4985;49.092;8.542;2023-04-26T06:32:40;99530.31;;;16.70;52.50
9893;BME280;4985;49.092;8.542;2023-04-26T06:35:08;99525.81;;;16.71;52.52
9893;BME280;4985;49.092;8.542;2023-04-26T06:37:35;99522.34;;;16.70;52.53
9893;BME280;4985;49.092;8.542;2023-04-26T06:40:03;99525.00;;;16.70;52.52
9893;BME280;4985;49.092;8.542;2023-04-26T06:42:30;99525.00;;;16.70;52.53
9893;BME280;4985;49.092;8.542;2023-04-26T06:44:57;99511.44;;;16.65;52.54
9893;BME280;4985;49.092;8.542;2023-04-26T06:47:23;99515.38;;;16.69;52.54
9893;BME280;4985;49.092;8.542;2023-04-26T06:49:51;99526.84;;;16.70;52.54
9893;BME280;4985;49.092;8.542;2023-04-26T06:52:18;99523.34;;;16.69;52.54
9893;BME280;4985;49.092;8.542;2023-04-26T06:54:44;99522.34;;;16.70;52.55
9893;BME280;4985;49.092;8.542;2023-04-26T06:57:11;99519.06;;;16.68;52.55
9893;BME280;4985;49.092;8.542;2023-04-26T06:59:38;99523.34;;;16.69;52.55
9893;BME280;4985;49.092;8.542;2023-04-26T07:02:04;99521.72;;;16.68;52.55
9893;BME280;4985;49.092;8.542;2023-04-26T07:04:31;99520.03;;;16.67;52.57
9893;BME280;4985;49.092;8.542;2023-04-26T07:06:59;99512.94;;;16.68;52.57
9893;BME280;4985;49.092;8.542;2023-04-26T07:09:26;99516.41;;;16.68;52.58
9893;BME280;4985;49.092;8.542;2023-04-26T07:11:52;99509.41;;;16.67;52.58
9893;BME280;4985;49.092;8.542;2023-04-26T07:14:19;99516.41;;;16.68;52.57
9893;BME280;4985;49.092;8.542;2023-04-26T07:16:46;99507.78;;;16.66;52.59
9893;BME280;4985;49.092;8.542;2023-04-26T07:19:12;99504.09;;;16.67;52.58
9893;BME280;4985;49.092;8.542;2023-04-26T07:21:39;99511.25;;;16.67;52.58
9893;BME280;4985;49.092;8.542;2023-04-26T07:24:07;99508.59;;;16.67;52.57
9893;BME280;4985;49.092;8.542;2023-04-26T07:26:34;99502.47;;;16.66;52.57
9893;BME280;4985;49.092;8.542;2023-04-26T07:29:01;99497.97;;;16.67;52.55
9893;BME280;4985;49.092;8.542;2023-04-26T07:31:29;99497.97;;;16.67;52.55
9893;BME280;4985;49.092;8.542;2023-04-26T07:33:55;99497.97;;;16.67;52.56
9893;BME280;4985;49.092;8.542;2023-04-26T07:36:22;99501.62;;;16.66;52.57
9893;BME280;4985;49.092;8.542;2023-04-26T07:38:48;99496.31;;;16.66;52.57
9893;BME280;4985;49.092;8.542;2023-04-26T07:41:17;99484.44;;;16.62;52.58
9893;BME280;4985;49.092;8.542;2023-04-26T07:43:43;99492.00;;;16.65;52.60
9893;BME280;4985;49.092;8.542;2023-04-26T07:46:10;99501.81;;;16.64;52.63
9893;BME280;4985;49.092;8.542;2023-04-26T07:48:36;99499.16;;;16.64;52.63
9893;BME280;4985;49.092;8.542;2023-04-26T07:51:06;99502.81;;;16.63;52.63
9893;BME280;4985;49.092;8.542;2023-04-26T07:53:33;99503.66;;;16.64;52.64
9893;BME280;4985;49.092;8.542;2023-04-26T07:56:02;99497.50;;;16.63;52.65
9893;BME280;4985;49.092;8.542;2023-04-26T07:58:30;99506.50;;;16.62;52.67
9893;BME280;4985;49.092;8.542;2023-04-26T08:00:58;99510.19;;;16.61;52.68
9893;BME280;4985;49.092;8.542;2023-04-26T08:03:24;99511.81;;;16.62;52.69
9893;BME280;4985;49.092;8.542;2023-04-26T08:05:52;99514.47;;;16.62;52.69
9893;BME280;4985;49.092;8.542;2023-04-26T08:08:20;99509.97;;;16.63;52.70
9893;BME280;4985;49.092;8.542;2023-04-26T08:10:47;99507.53;;;16.61;52.71
9893;BME280;4985;49.092;8.542;2023-04-26T08:13:14;99514.47;;;16.62;52.73
9893;BME280;4985;49.092;8.542;2023-04-26T08:15:42;99503.84;;;16.62;52.75
9893;BME280;4985;49.092;8.542;2023-04-26T08:18:08;99510.19;;;16.61;52.76
9893;BME280;4985;49.092;8.542;2023-04-26T08:20:35;99508.34;;;16.62;52.75
9893;BME280;4985;49.092;8.542;2023-04-26T08:23:02;99502.81;;;16.63;52.74
9893;BME280;4985;49.092;8.542;2023-04-26T08:25:28;99508.16;;;16.63;52.74
9893;BME280;4985;49.092;8.542;2023-04-26T08:27:55;99507.13;;;16.64;52.72
9893;BME280;4985;49.092;8.542;2023-04-26T08:30:22;99510.59;;;16.65;52.70
9893;BME280;4985;49.092;8.542;2023-04-26T08:32:50;99517.59;;;16.66;52.69
9893;BME280;4985;49.092;8.542;2023-04-26T08:35:16;99506.13;;;16.65;52.67
9893;BME280;4985;49.092;8.542;2023-04-26T08:37:43;99511.44;;;16.65;52.67
9893;BME280;4985;49.092;8.542;2023-04-26T08:40:10;99511.44;;;16.65;52.68
9893;BME280;4985;49.092;8.542;2023-04-26T08:42:39;99511.44;;;16.65;52.69
9893;BME280;4985;49.092;8.542;2023-04-26T08:45:07;99507.78;;;16.66;52.72
9893;BME280;4985;49.092;8.542;2023-04-26T08:47:39;99506.13;;;16.65;52.70
9893;BME280;4985;49.092;8.542;2023-04-26T08:50:11;99506.13;;;16.65;52.70
9893;BME280;4985;49.092;8.542;2023-04-26T08:52:39;99513.09;;;16.66;52.72
9893;BME280;4985;49.092;8.542;2023-04-26T08:55:07;99504.31;;;16.66;52.72
9893;BME280;4985;49.092;8.542;2023-04-26T08:57:34;99508.59;;;16.67;52.72
9893;BME280;4985;49.092;8.542;2023-04-26T09:00:02;99500.81;;;16.65;52.73
9893;BME280;4985;49.092;8.542;2023-04-26T09:02:34;99498.97;;;16.66;52.73
9893;BME280;4985;49.092;8.542;2023-04-26T09:05:01;99491.81;;;16.66;52.76
9893;BME280;4985;49.092;8.542;2023-04-26T09:07:31;99488.16;;;16.67;52.75
9893;BME280;4985;49.092;8.542;2023-04-26T09:09:59;99492.66;;;16.67;52.75
9893;BME280;4985;49.092;8.542;2023-04-26T09:12:26;99494.31;;;16.68;52.74
9893;BME280;4985;49.092;8.542;2023-04-26T09:14:52;99495.12;;;16.68;52.74
9893;BME280;4985;49.092;8.542;2023-04-26T09:17:24;99495.97;;;16.69;52.76
9893;BME280;4985;49.092;8.542;2023-04-26T09:19:51;99484.50;;;16.68;52.77
9893;BME280;4985;49.092;8.542;2023-04-26T09:22:27;99491.47;;;16.69;52.77
9893;BME280;4985;49.092;8.542;2023-04-26T09:24:55;99485.13;;;16.70;52.76
9893;BME280;4985;49.092;8.542;2023-04-26T09:27:21;99487.78;;;16.70;52.76
9893;BME280;4985;49.092;8.542;2023-04-26T09:29:57;99493.91;;;16.71;52.76
9893;BME280;4985;49.092;8.542;2023-04-26T09:32:24;99490.44;;;16.70;52.77
9893;BME280;4985;49.092;8.542;2023-04-26T09:34:51;99488.59;;;16.71;52.79
9893;BME280;4985;49.092;8.542;2023-04-26T09:37:18;99474.25;;;16.65;52.79
9893;BME280;4985;49.092;8.542;2023-04-26T09:39:45;99478.97;;;16.70;52.83
9893;BME280;4985;49.092;8.542;2023-04-26T09:42:16;99478.78;;;16.71;52.86
9893;BME280;4985;49.092;8.542;2023-04-26T09:44:44;99485.75;;;16.72;52.86
9893;BME280;4985;49.092;8.542;2023-04-26T09:47:10;99480.41;;;16.72;52.85
9893;BME280;4985;49.092;8.542;2023-04-26T09:49:44;99476.75;;;16.73;52.85
9893;BME280;4985;49.092;8.542;2023-04-26T09:52:13;99476.13;;;16.71;52.85
9893;BME280;4985;49.092;8.542;2023-04-26T09:54:41;99481.03;;;16.74;52.84
9893;BME280;4985;49.092;8.542;2023-04-26T09:57:08;99479.41;;;16.73;52.84
9893;BME280;4985;49.092;8.542;2023-04-26T09:59:41;99476.53;;;16.75;52.84
9893;BME280;4985;49.092;8.542;2023-04-26T10:02:13;99475.50;;;16.76;52.86
9893;BME280;4985;49.092;8.542;2023-04-26T10:04:41;99476.38;;;16.76;52.85
9893;BME280;4985;49.092;8.542;2023-04-26T10:07:10;99476.38;;;16.76;52.86
9893;BME280;4985;49.092;8.542;2023-04-26T10:09:37;99475.50;;;16.76;52.86
9893;BME280;4985;49.092;8.542;2023-04-26T10:12:04;99471.06;;;16.76;52.84
9893;BME280;4985;49.092;8.542;2023-04-26T10:14:31;99477.81;;;16.79;52.86
9893;BME280;4985;49.092;8.542;2023-04-26T10:17:02;99475.97;;;16.79;52.84
9893;BME280;4985;49.092;8.542;2023-04-26T10:19:29;99476.78;;;16.80;52.85
9893;BME280;4985;49.092;8.542;2023-04-26T10:22:00;99464.31;;;16.80;52.86
9893;BME280;4985;49.092;8.542;2023-04-26T10:24:29;99462.47;;;16.81;52.86
9893;BME280;4985;49.092;8.542;2023-04-26T10:26:56;99457.97;;;16.81;52.87
9893;BME280;4985;49.092;8.542;2023-04-26T10:29:24;99453.25;;;16.83;52.84
9893;BME280;4985;49.092;8.542;2023-04-26T10:32:07;99442.63;;;16.83;52.83
9893;BME280;4985;49.092;8.542;2023-04-26T10:34:37;99447.94;;;16.83;52.83
9893;BME280;4985;49.092;8.542;2023-04-26T10:37:10;99447.13;;;16.83;52.89
9893;BME280;4985;49.092;8.542;2023-04-26T10:39:37;99448.97;;;16.82;52.93
9893;BME280;4985;49.092;8.542;2023-04-26T10:42:17;99446.09;;;16.84;52.93
9893;BME280;4985;49.092;8.542;2023-04-26T10:44:48;99446.94;;;16.84;52.92
9893;BME280;4985;49.092;8.542;2023-04-26T10:47:24;99438.75;;;16.79;52.96
9893;BME280;4985;49.092;8.542;2023-04-26T10:49:53;99442.03;;;16.81;53.01
9893;BME280;4985;49.092;8.542;2023-04-26T10:52:26;99445.69;;;16.80;53.05
9893;BME280;4985;49.092;8.542;2023-04-26T10:54:54;99446.31;;;16.82;53.09
9893;BME280;4985;49.092;8.542;2023-04-26T10:57:23;99448.16;;;16.82;53.09
9893;BME280;4985;49.092;8.542;2023-04-26T11:00:16;99439.97;;;16.83;53.08
9893;BME280;4985;49.092;8.542;2023-04-26T11:02:52;99446.09;;;16.84;53.09
9893;BME280;4985;49.092;8.542;2023-04-26T11:08:27;99437.94;;;16.85;53.09
9893;BME280;4985;49.092;8.542;2023-04-26T11:11:04;99431.59;;;16.86;53.08
9893;BME280;4985;49.092;8.542;2023-04-26T11:13:35;99428.75;;;16.88;53.09
9893;BME280;4985;49.092;8.542;2023-04-26T11:16:03;99423.25;;;16.90;53.08
9893;BME280;4985;49.092;8.542;2023-04-26T11:18:33;99415.88;;;16.92;53.04
9893;BME280;4985;49.092;8.542;2023-04-26T11:20:59;99413.81;;;16.94;53.01
9893;BME280;4985;49.092;8.542;2023-04-26T11:23:28;99406.87;;;16.93;52.96
9893;BME280;4985;49.092;8.542;2023-04-26T11:25:56;99408.09;;;16.97;52.94
9893;BME280;4985;49.092;8.542;2023-04-26T11:28:23;99407.91;;;16.98;52.92
9893;BME280;4985;49.092;8.542;2023-04-26T11:30:49;99404.25;;;16.99;52.89
9893;BME280;4985;49.092;8.542;2023-04-26T11:33:17;99392.38;;;17.02;52.89
9893;BME280;4985;49.092;8.542;2023-04-26T11:35:48;99381.13;;;17.00;52.88
9893;BME280;4985;49.092;8.542;2023-04-26T11:38:15;99376.19;;;16.97;52.90
9893;BME280;4985;49.092;8.542;2023-04-26T11:40:42;99379.06;;;17.02;52.90
9893;BME280;4985;49.092;8.542;2023-04-26T11:43:09;99375.59;;;17.01;52.90
9893;BME280;4985;49.092;8.542;2023-04-26T11:45:37;99375.59;;;17.01;52.93
9893;BME280;4985;49.092;8.542;2023-04-26T11:48:06;99365.56;;;16.97;52.98
9893;BME280;4985;49.092;8.542;2023-04-26T11:50:33;99370.88;;;16.97;53.02
9893;BME280;4985;49.092;8.542;2023-04-26T11:53:04;99376.63;;;17.00;53.04
9893;BME280;4985;49.092;8.542;2023-04-26T11:55:31;99366.38;;;16.97;53.07
9893;BME280;4985;49.092;8.542;2023-04-26T11:58:00;99366.81;;;17.01;53.06
9893;BME280;4985;49.092;8.542;2023-04-26T12:00:27;99363.31;;;17.00;53.04
9893;BME280;4985;49.092;8.542;2023-04-26T12:02:54;99374.97;;;17.06;53.00
9893;BME280;4985;49.092;8.542;2023-04-26T12:05:26;99370.88;;;17.10;52.95
9893;BME280;4985;49.092;8.542;2023-04-26T12:07:55;99369.25;;;17.09;52.93
9893;BME280;4985;49.092;8.542;2023-04-26T12:10:25;99377.88;;;17.11;52.93
9893;BME280;4985;49.092;8.542;2023-04-26T12:12:54;99372.53;;;17.11;52.93
9893;BME280;4985;49.092;8.542;2023-04-26T12:15:22;99372.34;;;17.12;52.93
9893;BME280;4985;49.092;8.542;2023-04-26T12:17:53;99361.25;;;17.09;52.93
9893;BME280;4985;49.092;8.542;2023-04-26T12:20:26;99372.12;;;17.14;52.93
9893;BME280;4985;49.092;8.542;2023-04-26T12:22:57;99373.16;;;17.13;52.96
9893;BME280;4985;49.092;8.542;2023-04-26T12:25:25;99375.81;;;17.13;52.96
9893;BME280;4985;49.092;8.542;2023-04-26T12:27:52;99363.34;;;17.13;52.96
9893;BME280;4985;49.092;8.542;2023-04-26T12:30:18;99362.31;;;17.14;52.95
9893;BME280;4985;49.092;8.542;2023-04-26T12:32:46;99367.41;;;17.16;52.94
9893;BME280;4985;49.092;8.542;2023-04-26T12:35:12;99363.72;;;17.17;52.93
9893;BME280;4985;49.092;8.542;2023-04-26T12:37:39;99370.69;;;17.18;52.91
9893;BME280;4985;49.092;8.542;2023-04-26T12:40:07;99361.69;;;17.19;52.91
9893;BME280;4985;49.092;8.542;2023-04-26T12:42:35;99364.12;;;17.21;52.89
9893;BME280;4985;49.092;8.542;2023-04-26T12:45:02;99357.81;;;17.22;52.86
9893;BME280;4985;49.092;8.542;2023-04-26T12:47:30;99363.97;;;17.22;52.85
9893;BME280;4985;49.092;8.542;2023-04-26T12:49:56;99357.81;;;17.22;52.87
9893;BME280;4985;49.092;8.542;2023-04-26T12:52:25;99352.28;;;17.23;52.88
9893;BME280;4985;49.092;8.542;2023-04-26T12:54:52;99351.28;;;17.24;52.87
9893;BME280;4985;49.092;8.542;2023-04-26T12:57:18;99359.25;;;17.24;52.87
9893;BME280;4985;49.092;8.542;2023-04-26T12:59:47;99358.22;;;17.25;52.86
9893;BME280;4985;49.092;8.542;2023-04-26T13:02:13;99350.25;;;17.25;52.86
9893;BME280;4985;49.092;8.542;2023-04-26T13:04:40;99351.88;;;17.26;52.88
9893;BME280;4985;49.092;8.542;2023-04-26T13:07:07;99358.84;;;17.27;52.87
9893;BME280;4985;49.092;8.542;2023-04-26T13:09:34;99357.81;;;17.28;52.85
9893;BME280;4985;49.092;8.542;2023-04-26T13:12:00;99353.31;;;17.29;52.84
9893;BME280;4985;49.092;8.542;2023-04-26T13:14:27;99346.13;;;17.29;52.83
9893;BME280;4985;49.092;8.542;2023-04-26T13:16:55;99354.94;;;17.30;52.83
9893;BME280;4985;49.092;8.542;2023-04-26T13:19:22;99350.44;;;17.30;52.83
9893;BME280;4985;49.092;8.542;2023-04-26T13:21:49;99355.75;;;17.30;52.86
9893;BME280;4985;49.092;8.542;2023-04-26T13:24:16;99350.44;;;17.30;52.87
9893;BME280;4985;49.092;8.542;2023-04-26T13:26:43;99353.09;;;17.30;52.89